Time;durP1;ratioP1;P1;durP2;ratioP2;P2;SDS_P1;SDS_P2;PMS_P1;PMS_P2;Temp;Humidity;BMP_temperature;BMP_pressure;BME280_temperature;BME280_humidity;BME280_pressure;Samples;Min_cycle;Max_cycle;Signal;HPM_P1;HPM_P2
2023/03/27 00:01:14;;;;;;;;;;;4.40;99.90;;;;;;5112225;28;1191;-71
2023/03/27 00:03:41;;;;;;;;;;;4.40;99.90;;;;;;5092919;28;1147;-72
2023/03/27 00:06:10;;;;;;;;;;;4.40;99.90;;;;;;5111601;28;1374;-72
2023/03/27 00:08:35;;;;;;;;;;;4.30;99.90;;;;;;5093900;28;1164;-71
2023/03/27 00:11:01;;;;;;;;;;;4.30;99.90;;;;;;5111929;28;1147;-71
2023/03/27 00:13:28;;;;;;;;;;;4.30;99.90;;;;;;5118104;27;1262;-71
2023/03/27 00:15:54;;;;;;;;;;;4.30;99.90;;;;;;5132667;27;1155;-72
2023/03/27 00:18:20;;;;;;;;;;;4.30;99.90;;;;;;5113643;27;1996;-72
2023/03/27 00:20:46;;;;;;;;;;;4.40;99.90;;;;;;5126371;27;1158;-71
2023/03/27 00:23:12;;;;;;;;;;;4.40;99.90;;;;;;5111961;28;1116;-71
2023/03/27 00:25:37;;;;;;;;;;;4.30;99.90;;;;;;5093178;28;1085;-72
2023/03/27 00:28:03;;;;;;;;;;;4.30;99.90;;;;;;5110968;28;1112;-71
2023/03/27 00:30:29;;;;;;;;;;;4.20;99.90;;;;;;5111071;28;1120;-71
2023/03/27 00:32:56;;;;;;;;;;;4.10;99.90;;;;;;5093588;28;1175;-72
2023/03/27 00:35:22;;;;;;;;;;;4.00;99.90;;;;;;5110361;28;1091;-71
2023/03/27 00:37:48;;;;;;;;;;;3.90;99.90;;;;;;5076280;28;2029;-71
2023/03/27 00:40:16;;;;;;;;;;;3.80;99.90;;;;;;5126210;27;1169;-71
2023/03/27 00:42:43;;;;;;;;;;;3.70;99.90;;;;;;5109184;27;1129;-71
2023/03/27 00:45:15;;;;;;;;;;;3.70;99.90;;;;;;5092915;28;1864;-71
2023/03/27 00:47:40;;;;;;;;;;;3.60;99.90;;;;;;5103303;28;1027;-71
2023/03/27 00:50:09;;;;;;;;;;;3.70;99.90;;;;;;5105686;28;1128;-71
2023/03/27 00:52:37;;;;;;;;;;;3.60;99.90;;;;;;5093268;28;1128;-71
2023/03/27 00:55:06;;;;;;;;;;;3.60;99.90;;;;;;5110489;28;1088;-71
2023/03/27 00:57:31;;;;;;;;;;;3.50;99.90;;;;;;5096230;28;1953;-71
2023/03/27 00:59:59;;;;;;;;;;;3.50;99.90;;;;;;5110859;28;1092;-71
2023/03/27 01:02:25;;;;;;;;;;;3.60;99.90;;;;;;5075465;28;1148;-71
2023/03/27 01:04:52;;;;;;;;;;;3.60;99.90;;;;;;5092079;28;1171;-71
2023/03/27 01:07:18;;;;;;;;;;;3.70;99.90;;;;;;5110146;28;1572;-72
2023/03/27 01:09:44;;;;;;;;;;;3.80;99.90;;;;;;5110684;28;1108;-71
2023/03/27 01:12:29;;;;;;;;;;;3.80;99.90;;;;;;5110672;28;1306;-71
2023/03/27 01:15:02;;;;;;;;;;;3.90;99.90;;;;;;5092201;28;1117;-71
2023/03/27 01:17:36;;;;;;;;;;;3.90;99.90;;;;;;5091339;28;1997;-71
2023/03/27 01:20:16;;;;;;;;;;;3.90;99.90;;;;;;5110657;28;1168;-71
2023/03/27 01:23:16;;;;;;;;;;;3.90;99.90;;;;;;5076079;28;1184;-71
2023/03/27 01:25:47;;;;;;;;;;;3.90;99.90;;;;;;5075218;28;1123;-71
2023/03/27 01:28:19;;;;;;;;;;;3.90;99.90;;;;;;5092313;28;1121;-71
2023/03/27 01:30:51;;;;;;;;;;;3.90;99.90;;;;;;5074951;28;1164;-71
2023/03/27 01:33:37;;;;;;;;;;;4.00;99.90;;;;;;5109645;28;1121;-71
2023/03/27 01:36:09;;;;;;;;;;;3.90;99.90;;;;;;5126122;27;1202;-72
2023/03/27 01:38:54;;;;;;;;;;;3.80;99.90;;;;;;5074374;28;1910;-71
2023/03/27 01:41:26;;;;;;;;;;;3.70;99.90;;;;;;5077325;28;1554;-72
2023/03/27 01:43:56;;;;;;;;;;;3.60;99.90;;;;;;5117811;27;1096;-71
2023/03/27 01:46:24;;;;;;;;;;;3.70;99.90;;;;;;5091369;28;1100;-71
2023/03/27 01:48:58;;;;;;;;;;;3.40;99.90;;;;;;5091036;28;1156;-71
2023/03/27 01:51:31;;;;;;;;;;;3.40;99.90;;;;;;5109561;28;1117;-71
2023/03/27 01:54:01;;;;;;;;;;;3.30;99.90;;;;;;5091778;28;1180;-71
2023/03/27 01:56:31;;;;;;;;;;;3.20;99.90;;;;;;5074630;28;1926;-71
2023/03/27 01:59:02;;;;;;;;;;;3.20;99.90;;;;;;5090739;28;1224;-71
2023/03/27 02:01:33;;;;;;;;;;;3.20;99.90;;;;;;5092009;28;1116;-71
2023/03/27 02:04:01;;;;;;;;;;;3.20;99.90;;;;;;5087818;28;1255;-71
2023/03/27 02:06:30;;;;;;;;;;;3.20;99.90;;;;;;5087128;28;1295;-71
2023/03/27 02:08:56;;;;;;;;;;;3.30;99.90;;;;;;5088486;28;1116;-71
2023/03/27 02:11:25;;;;;;;;;;;3.30;99.90;;;;;;5088220;28;1309;-71
2023/03/27 02:13:59;;;;;;;;;;;3.30;99.90;;;;;;5070902;28;1137;-71
2023/03/27 02:16:32;;;;;;;;;;;3.40;99.90;;;;;;5092969;28;1917;-71
2023/03/27 02:19:00;;;;;;;;;;;3.40;99.90;;;;;;5108116;28;1139;-71
2023/03/27 02:21:26;;;;;;;;;;;3.60;99.90;;;;;;5107960;28;1132;-71
2023/03/27 02:23:55;;;;;;;;;;;3.80;99.90;;;;;;5107208;28;1108;-71
2023/03/27 02:26:21;;;;;;;;;;;3.90;99.90;;;;;;5086760;28;1121;-71
2023/03/27 02:28:54;;;;;;;;;;;3.70;99.90;;;;;;5088029;28;1200;-72
2023/03/27 02:31:29;;;;;;;;;;;3.60;99.90;;;;;;5087895;28;1144;-72
2023/03/27 02:33:58;;;;;;;;;;;3.40;99.90;;;;;;5087770;28;1100;-71
2023/03/27 02:36:35;;;;;;;;;;;3.30;99.90;;;;;;5087782;28;1992;-71
2023/03/27 02:39:03;;;;;;;;;;;3.20;99.90;;;;;;5070533;28;1107;-71
2023/03/27 02:41:37;;;;;;;;;;;3.10;99.90;;;;;;5104279;28;1167;-71
2023/03/27 02:44:05;;;;;;;;;;;3.00;99.90;;;;;;5120947;28;1086;-71
2023/03/27 02:46:50;;;;;;;;;;;3.00;99.90;;;;;;5087756;28;1195;-71
2023/03/27 02:49:20;;;;;;;;;;;3.00;99.90;;;;;;5070119;28;1829;-71
2023/03/27 02:51:48;;;;;;;;;;;3.00;99.90;;;;;;5063140;28;1105;-71
2023/03/27 02:54:16;;;;;;;;;;;3.00;99.90;;;;;;5087365;28;1164;-71
2023/03/27 02:56:45;;;;;;;;;;;3.00;99.90;;;;;;5088043;28;1977;-71
2023/03/27 02:59:21;;;;;;;;;;;3.10;99.90;;;;;;5087960;28;1109;-71
2023/03/27 03:01:48;;;;;;;;;;;3.10;99.90;;;;;;5088020;28;1139;-71
2023/03/27 03:04:20;;;;;;;;;;;3.00;99.90;;;;;;5146008;27;1115;-71
2023/03/27 03:07:05;;;;;;;;;;;3.10;99.90;;;;;;5128725;27;1602;-71
2023/03/27 03:09:31;;;;;;;;;;;3.10;99.90;;;;;;5097592;28;1215;-71
2023/03/27 03:11:58;;;;;;;;;;;2.90;99.90;;;;;;5087630;28;1291;-71
2023/03/27 03:14:26;;;;;;;;;;;2.90;99.90;;;;;;5091169;28;1164;-71
2023/03/27 03:16:52;;;;;;;;;;;2.80;99.90;;;;;;5089717;28;1901;-71
2023/03/27 03:19:18;;;;;;;;;;;2.70;99.90;;;;;;5093028;28;1146;-71
2023/03/27 03:21:48;;;;;;;;;;;2.70;99.90;;;;;;5091181;28;1184;-71
2023/03/27 03:24:14;;;;;;;;;;;2.60;99.90;;;;;;5089959;28;1167;-71
2023/03/27 03:26:43;;;;;;;;;;;2.60;99.90;;;;;;5090297;28;1117;-71
2023/03/27 03:29:10;;;;;;;;;;;2.60;99.90;;;;;;5124877;28;1114;-71
2023/03/27 03:31:44;;;;;;;;;;;2.60;99.90;;;;;;5093273;28;1156;-71
2023/03/27 03:34:11;;;;;;;;;;;2.60;99.90;;;;;;5094073;28;1124;-71
2023/03/27 03:36:37;;;;;;;;;;;2.60;99.90;;;;;;5111627;28;1910;-71
2023/03/27 03:39:04;;;;;;;;;;;2.80;99.90;;;;;;5094015;28;1106;-71
2023/03/27 03:41:30;;;;;;;;;;;2.60;99.90;;;;;;5077743;28;1089;-71
2023/03/27 03:43:59;;;;;;;;;;;2.60;99.90;;;;;;5093191;28;1171;-71
2023/03/27 03:46:26;;;;;;;;;;;2.50;99.90;;;;;;5094135;28;1166;-71
2023/03/27 03:48:51;;;;;;;;;;;2.50;99.90;;;;;;5094967;28;1168;-71
2023/03/27 03:51:17;;;;;;;;;;;2.50;99.90;;;;;;5101266;28;1247;-71
2023/03/27 03:53:43;;;;;;;;;;;2.50;99.90;;;;;;5134215;27;1221;-71
2023/03/27 03:56:08;;;;;;;;;;;2.40;99.90;;;;;;5114636;27;1403;-71
2023/03/27 03:58:36;;;;;;;;;;;2.50;99.90;;;;;;5103581;28;1906;-71
2023/03/27 04:01:03;;;;;;;;;;;2.60;99.90;;;;;;5103360;28;1251;-71
2023/03/27 04:03:38;;;;;;;;;;;2.70;99.90;;;;;;5100340;28;1149;-71
2023/03/27 04:06:04;;;;;;;;;;;2.80;99.90;;;;;;5101905;28;1341;-71
2023/03/27 04:08:31;;;;;;;;;;;2.80;99.90;;;;;;5128027;27;1200;-71
2023/03/27 04:11:03;;;;;;;;;;;2.80;99.90;;;;;;5113721;27;1255;-71
2023/03/27 04:13:49;;;;;;;;;;;2.70;99.90;;;;;;5101384;28;1231;-71
2023/03/27 04:16:25;;;;;;;;;;;1.90;99.90;;;;;;5127575;27;1131;-71
2023/03/27 04:18:54;;;;;;;;;;;2.50;99.90;;;;;;5092921;28;1910;-70
2023/03/27 04:21:21;;;;;;;;;;;2.50;99.90;;;;;;5080386;28;1182;-71
2023/03/27 04:23:48;;;;;;;;;;;2.50;99.90;;;;;;5112949;27;1233;-70
2023/03/27 04:26:25;;;;;;;;;;;2.50;99.90;;;;;;5140593;27;1305;-71
2023/03/27 04:29:22;;;;;;;;;;;2.40;99.90;;;;;;5116508;27;1109;-71
2023/03/27 04:31:58;;;;;;;;;;;2.40;99.90;;;;;;5132018;27;1107;-70
2023/03/27 04:34:39;;;;;;;;;;;2.30;99.90;;;;;;5121656;27;1070;-70
2023/03/27 04:37:18;;;;;;;;;;;2.30;99.90;;;;;;5128110;27;1913;-71
2023/03/27 04:39:59;;;;;;;;;;;2.30;99.90;;;;;;5092800;28;1175;-71
2023/03/27 04:42:24;;;;;;;;;;;2.30;99.90;;;;;;5093346;28;1132;-70
2023/03/27 04:44:51;;;;;;;;;;;2.30;99.90;;;;;;5111157;28;1262;-71
2023/03/27 04:47:19;;;;;;;;;;;2.40;99.90;;;;;;5091894;28;1171;-70
2023/03/27 04:49:45;;;;;;;;;;;2.40;99.90;;;;;;5093467;28;1096;-71
2023/03/27 04:52:18;;;;;;;;;;;2.30;99.90;;;;;;5075638;28;1219;-70
2023/03/27 04:54:44;;;;;;;;;;;2.30;99.90;;;;;;5092031;28;1262;-71
2023/03/27 04:57:10;;;;;;;;;;;2.30;99.90;;;;;;5111162;28;1913;-71
2023/03/27 04:59:36;;;;;;;;;;;2.40;99.90;;;;;;5092486;28;1309;-71
2023/03/27 05:02:29;;;;;;;;;;;2.40;99.90;;;;;;5109968;28;1125;-70
2023/03/27 05:05:02;;;;;;;;;;;2.50;99.90;;;;;;5102050;28;1158;-71
2023/03/27 05:07:31;;;;;;;;;;;2.50;99.90;;;;;;5084194;28;1141;-71
2023/03/27 05:09:58;;;;;;;;;;;2.60;99.90;;;;;;5091996;28;1129;-71
2023/03/27 05:12:27;;;;;;;;;;;2.60;99.90;;;;;;5074981;28;1349;-71
2023/03/27 05:14:58;;;;;;;;;;;2.70;99.90;;;;;;5126234;27;1139;-71
2023/03/27 05:17:39;;;;;;;;;;;2.80;99.90;;;;;;5092417;28;1910;-71
2023/03/27 05:20:15;;;;;;;;;;;2.90;99.90;;;;;;5092568;28;1109;-71
2023/03/27 05:22:42;;;;;;;;;;;2.90;99.90;;;;;;5101522;28;1195;-71
2023/03/27 05:25:22;;;;;;;;;;;2.90;99.90;;;;;;5092109;28;1276;-71
2023/03/27 05:27:48;;;;;;;;;;;2.90;99.90;;;;;;5110710;28;1124;-71
2023/03/27 05:30:16;;;;;;;;;;;2.90;99.90;;;;;;5090719;28;1148;-71
2023/03/27 05:32:43;;;;;;;;;;;3.00;99.90;;;;;;5091979;28;1147;-71
2023/03/27 05:35:15;;;;;;;;;;;3.00;99.90;;;;;;5092306;28;1269;-71
2023/03/27 05:37:46;;;;;;;;;;;3.00;99.90;;;;;;5090896;28;1985;-71
2023/03/27 05:40:25;;;;;;;;;;;2.90;99.90;;;;;;5091810;28;986;-71
2023/03/27 05:42:52;;;;;;;;;;;3.00;99.90;;;;;;5092065;28;1111;-71
2023/03/27 05:45:18;;;;;;;;;;;3.10;99.90;;;;;;5125014;27;1112;-71
2023/03/27 05:47:47;;;;;;;;;;;3.20;99.90;;;;;;5090295;28;1081;-71
2023/03/27 05:50:14;;;;;;;;;;;3.30;99.90;;;;;;5087167;28;1177;-71
2023/03/27 05:52:41;;;;;;;;;;;3.40;99.90;;;;;;5091475;28;1164;-71
2023/03/27 05:55:07;;;;;;;;;;;3.30;99.90;;;;;;5074767;28;1898;-71
2023/03/27 05:57:37;;;;;;;;;;;3.30;99.90;;;;;;5090611;28;1986;-71
2023/03/27 06:00:10;;;;;;;;;;;3.20;99.90;;;;;;5091322;28;1147;-71
2023/03/27 06:02:42;;;;;;;;;;;3.20;99.90;;;;;;5109923;28;1116;-71
2023/03/27 06:05:11;;;;;;;;;;;3.30;99.90;;;;;;5090945;28;1283;-71
2023/03/27 06:07:39;;;;;;;;;;;3.30;99.90;;;;;;5098635;28;1202;-71
2023/03/27 06:10:06;;;;;;;;;;;3.40;99.90;;;;;;5092016;28;1152;-71
2023/03/27 06:12:33;;;;;;;;;;;3.40;99.90;;;;;;5090931;28;1353;-71
2023/03/27 06:15:08;;;;;;;;;;;3.50;99.90;;;;;;5076426;28;1259;-71
2023/03/27 06:17:41;;;;;;;;;;;3.50;99.90;;;;;;5107777;28;1910;-71
2023/03/27 06:20:11;;;;;;;;;;;3.50;99.90;;;;;;5090747;28;1187;-71
2023/03/27 06:22:38;;;;;;;;;;;3.60;99.90;;;;;;5091237;28;1100;-71
2023/03/27 06:25:05;;;;;;;;;;;3.60;99.90;;;;;;5082113;28;1153;-71
2023/03/27 06:27:32;;;;;;;;;;;3.60;99.90;;;;;;5090853;28;1223;-71
2023/03/27 06:29:58;;;;;;;;;;;3.60;99.90;;;;;;5090789;28;1168;-71
2023/03/27 06:32:24;;;;;;;;;;;3.60;99.90;;;;;;5093540;28;1218;-71
2023/03/27 06:34:51;;;;;;;;;;;3.50;99.90;;;;;;5074397;28;1044;-71
2023/03/27 06:37:49;;;;;;;;;;;3.70;99.90;;;;;;5124797;28;1977;-71
2023/03/27 06:40:21;;;;;;;;;;;3.40;99.90;;;;;;5090784;28;1104;-70
2023/03/27 06:42:49;;;;;;;;;;;3.40;99.90;;;;;;5075923;28;1181;-70
2023/03/27 06:45:24;;;;;;;;;;;3.60;99.90;;;;;;5090916;28;1163;-71
2023/03/27 06:48:11;;;;;;;;;;;3.70;99.90;;;;;;5108441;28;1229;-71
2023/03/27 06:50:40;;;;;;;;;;;3.90;99.90;;;;;;5097425;28;1051;-71
2023/03/27 06:53:06;;;;;;;;;;;4.10;99.90;;;;;;5103008;28;1092;-71
2023/03/27 06:55:38;;;;;;;;;;;4.30;99.90;;;;;;5073517;28;1218;-71
2023/03/27 06:58:05;;;;;;;;;;;4.50;99.90;;;;;;5090489;28;1932;-70
2023/03/27 07:00:34;;;;;;;;;;;4.60;99.90;;;;;;5090767;28;1220;-71
2023/03/27 07:03:14;;;;;;;;;;;4.70;99.90;;;;;;5087490;28;1125;-71
2023/03/27 07:05:57;;;;;;;;;;;4.80;99.90;;;;;;5089724;28;1204;-71
2023/03/27 07:08:25;;;;;;;;;;;4.80;99.90;;;;;;5095257;28;1128;-71
2023/03/27 07:10:54;;;;;;;;;;;4.90;99.90;;;;;;5094494;28;1199;-71
2023/03/27 07:13:20;;;;;;;;;;;5.00;99.90;;;;;;5094398;27;1326;-70
2023/03/27 07:15:46;;;;;;;;;;;5.10;99.90;;;;;;5091021;28;1141;-71
2023/03/27 07:18:14;;;;;;;;;;;5.10;99.90;;;;;;5110212;28;1918;-71
2023/03/27 07:20:47;;;;;;;;;;;5.20;99.90;;;;;;5111270;28;1251;-71
2023/03/27 07:23:16;;;;;;;;;;;5.40;99.90;;;;;;5097536;28;1103;-71
2023/03/27 07:25:56;;;;;;;;;;;5.50;99.90;;;;;;5090936;28;1147;-71
2023/03/27 07:28:37;;;;;;;;;;;5.60;99.90;;;;;;5090865;28;1516;-71
2023/03/27 07:31:09;;;;;;;;;;;5.60;99.90;;;;;;5073533;28;1191;-71
2023/03/27 07:33:35;;;;;;;;;;;5.60;99.90;;;;;;5103162;28;1223;-71
2023/03/27 07:36:05;;;;;;;;;;;5.50;99.90;;;;;;5089430;28;1141;-71
2023/03/27 07:38:40;;;;;;;;;;;5.40;99.90;;;;;;5091221;28;1983;-71
2023/03/27 07:41:16;;;;;;;;;;;5.40;99.90;;;;;;5090998;28;1024;-71
2023/03/27 07:44:01;;;;;;;;;;;5.30;99.90;;;;;;5091696;28;1114;-71
2023/03/27 07:46:41;;;;;;;;;;;5.30;99.90;;;;;;5089589;28;1268;-71
2023/03/27 07:49:08;;;;;;;;;;;5.20;99.90;;;;;;5099112;28;1230;-71
2023/03/27 07:51:34;;;;;;;;;;;5.20;99.90;;;;;;5099609;28;1104;-71
2023/03/27 07:54:03;;;;;;;;;;;5.20;99.90;;;;;;5090829;28;1065;-71
2023/03/27 07:56:34;;;;;;;;;;;5.30;99.90;;;;;;5090651;28;1117;-71
2023/03/27 07:59:16;;;;;;;;;;;5.30;99.90;;;;;;5089797;28;1156;-70
2023/03/27 08:01:42;;;;;;;;;;;5.40;99.90;;;;;;5091024;28;1343;-71
2023/03/27 08:04:07;;;;;;;;;;;5.50;99.90;;;;;;5100822;28;1447;-71
2023/03/27 08:06:36;;;;;;;;;;;5.50;99.90;;;;;;5100115;27;1416;-71
2023/03/27 08:09:04;;;;;;;;;;;5.50;99.90;;;;;;5090114;28;1163;-70
2023/03/27 08:11:30;;;;;;;;;;;5.50;99.90;;;;;;5123817;27;1278;-71
2023/03/27 08:13:57;;;;;;;;;;;5.50;99.90;;;;;;5092661;28;1154;-71
2023/03/27 08:16:26;;;;;;;;;;;5.50;99.90;;;;;;5091029;28;1147;-71
2023/03/27 08:18:53;;;;;;;;;;;5.50;99.90;;;;;;5088940;28;1972;-70
2023/03/27 08:21:19;;;;;;;;;;;5.50;99.90;;;;;;5098832;28;1081;-71
2023/03/27 08:23:48;;;;;;;;;;;5.50;99.90;;;;;;5100417;28;1207;-71
2023/03/27 08:26:38;;;;;;;;;;;5.60;99.90;;;;;;5083307;28;3716;-71
2023/03/27 08:29:07;;;;;;;;;;;5.70;99.90;;;;;;5122127;27;3441;-70
2023/03/27 08:31:34;;;;;;;;;;;5.70;99.90;;;;;;5097313;28;3532;-71
2023/03/27 08:34:02;;;;;;;;;;;5.80;99.90;;;;;;5096124;28;1158;-70
2023/03/27 08:36:38;;;;;;;;;;;5.80;99.90;;;;;;5122891;27;1902;-71
2023/03/27 08:39:06;;;;;;;;;;;5.90;99.90;;;;;;5089448;28;1175;-71
2023/03/27 08:41:41;;;;;;;;;;;6.00;99.90;;;;;;5089421;28;1120;-71
2023/03/27 08:44:14;;;;;;;;;;;6.00;99.90;;;;;;5116410;27;3484;-70
2023/03/27 08:46:44;;;;;;;;;;;6.10;99.90;;;;;;5075431;28;1213;-71
2023/03/27 08:49:15;;;;;;;;;;;6.00;99.90;;;;;;5089535;28;1104;-70
2023/03/27 08:51:51;;;;;;;;;;;5.90;99.90;;;;;;5089708;28;1112;-71
2023/03/27 08:54:18;;;;;;;;;;;6.00;99.90;;;;;;5072701;28;1196;-71
2023/03/27 08:56:47;;;;;;;;;;;6.00;99.90;;;;;;5126681;27;1959;-71
2023/03/27 08:59:16;;;;;;;;;;;6.20;99.90;;;;;;5074517;28;1097;-71
2023/03/27 09:01:44;;;;;;;;;;;6.40;99.90;;;;;;5125279;27;1111;-70
2023/03/27 09:04:12;;;;;;;;;;;6.50;99.90;;;;;;5064194;28;1115;-71
2023/03/27 09:06:49;;;;;;;;;;;6.60;99.90;;;;;;5075022;28;1205;-71
2023/03/27 09:09:24;;;;;;;;;;;6.60;99.90;;;;;;5068039;28;1083;-71
2023/03/27 09:12:06;;;;;;;;;;;6.70;99.90;;;;;;5068936;28;1396;-71
2023/03/27 09:14:38;;;;;;;;;;;6.60;99.90;;;;;;5067985;28;1179;-71
2023/03/27 09:17:09;;;;;;;;;;;6.20;99.90;;;;;;5067039;28;1937;-71
2023/03/27 09:19:42;;;;;;;;;;;5.90;99.90;;;;;;5068179;28;1236;-71
2023/03/27 09:22:12;;;;;;;;;;;5.60;99.90;;;;;;5065429;28;1384;-71
2023/03/27 09:24:55;;;;;;;;;;;5.70;99.90;;;;;;5057353;28;1145;-71
2023/03/27 09:27:42;;;;;;;;;;;6.20;99.90;;;;;;5067110;28;1376;-71
2023/03/27 09:30:27;;;;;;;;;;;6.50;99.90;;;;;;5066674;28;1098;-71
2023/03/27 09:32:58;;;;;;;;;;;6.60;99.90;;;;;;5068420;28;1141;-70
2023/03/27 09:35:24;;;;;;;;;;;6.70;99.90;;;;;;5084067;28;1251;-71
2023/03/27 09:37:55;;;;;;;;;;;6.90;99.90;;;;;;5067518;28;1941;-71
2023/03/27 09:40:24;;;;;;;;;;;7.00;99.90;;;;;;5100153;28;1146;-71
2023/03/27 09:42:54;;;;;;;;;;;7.30;99.90;;;;;;5067583;28;1133;-71
2023/03/27 09:45:20;;;;;;;;;;;7.40;99.90;;;;;;5102164;28;1091;-71
2023/03/27 09:48:00;;;;;;;;;;;7.30;99.90;;;;;;5050488;28;1203;-71
2023/03/27 09:50:33;;;;;;;;;;;7.20;99.90;;;;;;5067274;28;1121;-71
2023/03/27 09:53:09;;;;;;;;;;;7.10;99.90;;;;;;5069616;28;1104;-71
2023/03/27 09:55:49;;;;;;;;;;;6.90;99.90;;;;;;5067363;28;1176;-71
2023/03/27 09:58:20;;;;;;;;;;;6.80;99.90;;;;;;5066594;28;2474;-71
2023/03/27 10:00:47;;;;;;;;;;;6.60;99.90;;;;;;5069479;28;1097;-71
2023/03/27 10:03:16;;;;;;;;;;;6.30;99.90;;;;;;5093678;28;1154;-71
2023/03/27 10:05:42;;;;;;;;;;;6.50;99.90;;;;;;5086523;28;1623;-71
2023/03/27 10:08:28;;;;;;;;;;;6.80;99.90;;;;;;5109952;28;1220;-71
2023/03/27 10:11:07;;;;;;;;;;;7.30;99.90;;;;;;5100170;27;1057;-71
2023/03/27 10:13:43;;;;;;;;;;;7.40;99.90;;;;;;5114272;27;1017;-71
2023/03/27 10:16:09;;;;;;;;;;;7.20;99.90;;;;;;5108934;28;1373;-71
2023/03/27 10:18:53;;;;;;;;;;;7.00;99.90;;;;;;5090468;28;1971;-70
2023/03/27 10:21:26;;;;;;;;;;;7.30;99.90;;;;;;5091327;28;1440;-71
2023/03/27 10:23:58;;;;;;;;;;;7.60;99.90;;;;;;5131528;27;1184;-72
2023/03/27 10:26:51;;;;;;;;;;;8.10;98.20;;;;;;5098624;28;1089;-71
2023/03/27 10:29:25;;;;;;;;;;;8.70;99.90;;;;;;5100332;28;1184;-72
2023/03/27 10:31:52;;;;;;;;;;;9.10;97.40;;;;;;5064097;28;1089;-72
2023/03/27 10:34:33;;;;;;;;;;;8.60;99.90;;;;;;5096401;28;1064;-72
2023/03/27 10:37:18;;;;;;;;;;;7.50;99.90;;;;;;5109389;28;1918;-72
2023/03/27 10:39:50;;;;;;;;;;;;;;;;;;5111698;28;1096;-71
2023/03/27 10:42:27;;;;;;;;;;;5.90;99.90;;;;;;5104859;27;1286;-71
2023/03/27 10:44:55;;;;;;;;;;;5.60;99.90;;;;;;5108378;28;1250;-71
2023/03/27 10:47:29;;;;;;;;;;;6.00;99.90;;;;;;5098066;28;1176;-71
2023/03/27 10:49:56;;;;;;;;;;;7.20;99.90;;;;;;5104690;28;1282;-71
2023/03/27 10:52:39;;;;;;;;;;;8.30;99.90;;;;;;5085083;28;1274;-71
2023/03/27 10:55:29;;;;;;;;;;;9.30;96.90;;;;;;5119667;27;1274;-71
2023/03/27 10:57:58;;;;;;;;;;;9.00;96.20;;;;;;5102806;28;1905;-71
2023/03/27 11:00:33;;;;;;;;;;;8.80;97.10;;;;;;5138366;27;1195;-71
2023/03/27 11:03:04;;;;;;;;;;;8.70;94.70;;;;;;5137206;27;1231;-71
2023/03/27 11:05:35;;;;;;;;;;;9.00;93.60;;;;;;5107578;27;3665;-72
2023/03/27 11:08:12;;;;;;;;;;;8.80;94.90;;;;;;5109176;28;1259;-72
2023/03/27 11:10:40;;;;;;;;;;;8.20;94.30;;;;;;5080222;28;3495;-71
2023/03/27 11:13:09;;;;;;;;;;;7.90;94.90;;;;;;5097522;28;1285;-71
2023/03/27 11:15:41;;;;;;;;;;;8.10;95.80;;;;;;5096545;28;1093;-71
2023/03/27 11:18:28;;;;;;;;;;;8.40;95.60;;;;;;5085121;28;1985;-72
2023/03/27 11:21:00;;;;;;;;;;;8.80;95.80;;;;;;5115228;28;1164;-72
2023/03/27 11:23:37;;;;;;;;;;;9.40;93.80;;;;;;5096984;28;3833;-72
2023/03/27 11:26:24;;;;;;;;;;;9.50;92.10;;;;;;5080258;28;1215;-71
2023/03/27 11:28:56;;;;;;;;;;;9.00;92.00;;;;;;5096589;28;1081;-71
2023/03/27 11:31:24;;;;;;;;;;;8.80;95.50;;;;;;5097075;28;1099;-72
2023/03/27 11:33:58;;;;;;;;;;;9.20;96.70;;;;;;5136898;27;1084;-71
2023/03/27 11:36:34;;;;;;;;;;;8.80;96.70;;;;;;5096862;28;1164;-72
2023/03/27 11:39:14;;;;;;;;;;;9.00;96.70;;;;;;5080380;28;1164;-71
2023/03/27 11:41:48;;;;;;;;;;;9.40;93.80;;;;;;5095041;28;1171;-71
2023/03/27 11:44:14;;;;;;;;;;;9.60;87.00;;;;;;5123560;27;1266;-71
2023/03/27 11:47:18;;;;;;;;;;;9.80;91.70;;;;;;5114960;28;1270;-71
2023/03/27 11:50:06;;;;;;;;;;;9.70;93.30;;;;;;5096786;28;1136;-71
2023/03/27 11:52:46;;;;;;;;;;;9.80;92.60;;;;;;5102615;28;1273;-72
2023/03/27 11:55:25;;;;;;;;;;;9.30;93.00;;;;;;5093564;28;1582;-72
2023/03/27 11:58:03;;;;;;;;;;;8.10;97.90;;;;;;5093198;28;1985;-71
2023/03/27 12:01:01;;;;;;;;;;;7.40;99.90;;;;;;5093381;28;1189;-71
2023/03/27 12:03:47;;;;;;;;;;;7.30;99.90;;;;;;5092614;28;1304;-71
2023/03/27 12:06:29;;;;;;;;;;;8.20;99.90;;;;;;5093732;28;1461;-71
2023/03/27 12:09:04;;;;;;;;;;;9.00;96.60;;;;;;5096976;28;1116;-71
2023/03/27 12:11:42;;;;;;;;;;;9.20;95.50;;;;;;5093740;28;1761;-71
2023/03/27 12:14:16;;;;;;;;;;;9.60;92.60;;;;;;5093990;28;1089;-71
2023/03/27 12:16:46;;;;;;;;;;;9.80;92.00;;;;;;5093425;28;1169;-71
2023/03/27 12:19:26;;;;;;;;;;;9.20;93.50;;;;;;5096480;28;1142;-71
2023/03/27 12:22:22;;;;;;;;;;;9.30;90.70;;;;;;5097339;28;3555;-71
2023/03/27 12:24:56;;;;;;;;;;;10.10;93.20;;;;;;5107961;28;3447;-71
2023/03/27 12:27:43;;;;;;;;;;;10.50;90.10;;;;;;5112198;27;3585;-71
2023/03/27 12:30:31;;;;;;;;;;;10.60;92.00;;;;;;5114720;27;1306;-71
2023/03/27 12:32:58;;;;;;;;;;;10.70;91.80;;;;;;5075089;28;1512;-71
2023/03/27 12:35:27;;;;;;;;;;;10.40;84.20;;;;;;5132818;27;1316;-71
2023/03/27 12:37:58;;;;;;;;;;;10.20;89.90;;;;;;5130675;27;1906;-71
2023/03/27 12:40:27;;;;;;;;;;;10.20;91.40;;;;;;5075075;28;1132;-71
2023/03/27 12:43:05;;;;;;;;;;;10.50;92.10;;;;;;5115340;27;1290;-71
2023/03/27 12:45:32;;;;;;;;;;;10.70;92.60;;;;;;5078113;28;1417;-71
2023/03/27 12:48:08;;;;;;;;;;;10.90;91.70;;;;;;5097721;28;1290;-72
2023/03/27 12:50:40;;;;;;;;;;;11.00;89.70;;;;;;5094731;27;3741;-71
2023/03/27 12:53:17;;;;;;;;;;;10.70;91.50;;;;;;5091128;28;1183;-72
2023/03/27 12:56:08;;;;;;;;;;;10.60;86.40;;;;;;5114998;27;1213;-71
2023/03/27 12:58:35;;;;;;;;;;;10.40;87.40;;;;;;5092350;28;1992;-71
2023/03/27 13:01:08;;;;;;;;;;;9.90;87.80;;;;;;5074764;28;1121;-71
2023/03/27 13:03:41;;;;;;;;;;;9.10;92.10;;;;;;5108521;27;1296;-71
2023/03/27 13:06:16;;;;;;;;;;;9.10;94.00;;;;;;5089590;28;1387;-71
2023/03/27 13:08:43;;;;;;;;;;;8.60;95.30;;;;;;5120949;27;1223;-71
2023/03/27 13:11:23;;;;;;;;;;;8.10;96.90;;;;;;5088610;28;1266;-71
2023/03/27 13:14:07;;;;;;;;;;;8.20;97.00;;;;;;5088591;28;1256;-71
2023/03/27 13:16:44;;;;;;;;;;;8.30;98.90;;;;;;5087987;28;1231;-71
2023/03/27 13:19:19;;;;;;;;;;;8.90;99.20;;;;;;5088458;28;1913;-71
2023/03/27 13:22:03;;;;;;;;;;;9.10;97.20;;;;;;5070616;28;1292;-71
2023/03/27 13:24:42;;;;;;;;;;;9.00;94.70;;;;;;5124272;27;1191;-71
2023/03/27 13:27:30;;;;;;;;;;;8.60;95.80;;;;;;5092336;28;1112;-71
2023/03/27 13:29:57;;;;;;;;;;;8.70;95.10;;;;;;5079940;28;1157;-71
2023/03/27 13:32:33;;;;;;;;;;;8.70;98.50;;;;;;5088960;28;1238;-71
2023/03/27 13:35:22;;;;;;;;;;;9.20;98.10;;;;;;5071025;28;1056;-71
2023/03/27 13:37:48;;;;;;;;;;;9.20;96.70;;;;;;5095495;28;1910;-71
2023/03/27 13:40:19;;;;;;;;;;;9.20;95.60;;;;;;5087409;28;3139;-71
2023/03/27 13:42:49;;;;;;;;;;;9.40;96.50;;;;;;5084736;28;3881;-71
2023/03/27 13:45:20;;;;;;;;;;;9.20;95.00;;;;;;5086217;28;1224;-71
2023/03/27 13:48:19;;;;;;;;;;;8.40;96.30;;;;;;5087990;28;3479;-71
2023/03/27 13:50:46;;;;;;;;;;;8.20;95.20;;;;;;5085678;28;1097;-71
2023/03/27 13:53:21;;;;;;;;;;;8.70;94.70;;;;;;5088153;28;1092;-71
2023/03/27 13:56:05;;;;;;;;;;;9.20;92.10;;;;;;5071341;28;1158;-71
2023/03/27 13:58:57;;;;;;;;;;;9.20;92.20;;;;;;5089323;28;3083;-71
2023/03/27 14:01:26;;;;;;;;;;;9.10;93.10;;;;;;5132855;27;1205;-71
2023/03/27 14:04:16;;;;;;;;;;;9.70;89.00;;;;;;5069968;28;1818;-71
2023/03/27 14:07:09;;;;;;;;;;;10.20;90.90;;;;;;5087980;28;1540;-71
2023/03/27 14:09:43;;;;;;;;;;;10.60;89.20;;;;;;5087271;28;1116;-71
2023/03/27 14:12:17;;;;;;;;;;;10.50;87.60;;;;;;5088384;28;1338;-71
2023/03/27 14:15:12;;;;;;;;;;;9.70;90.60;;;;;;5086346;28;1279;-71
2023/03/27 14:17:41;;;;;;;;;;;9.90;90.40;;;;;;5086815;28;1918;-71
2023/03/27 14:20:07;;;;;;;;;;;9.50;90.00;;;;;;5089387;28;1092;-71
2023/03/27 14:22:41;;;;;;;;;;;9.10;92.60;;;;;;5070973;28;1160;-71
2023/03/27 14:25:11;;;;;;;;;;;9.60;93.10;;;;;;5070711;28;1089;-68
2023/03/27 14:27:44;;;;;;;;;;;10.00;90.00;;;;;;5087380;28;1158;-68
2023/03/27 14:30:12;;;;;;;;;;;9.00;90.80;;;;;;5085287;28;1672;-70
2023/03/27 14:32:38;;;;;;;;;;;9.00;91.90;;;;;;5104071;28;1160;-70
2023/03/27 14:35:20;;;;;;;;;;;9.80;91.70;;;;;;5065235;28;1462;-70
2023/03/27 14:37:54;;;;;;;;;;;9.80;92.00;;;;;;5086566;28;1969;-70
2023/03/27 14:40:31;;;;;;;;;;;9.60;91.50;;;;;;5102598;28;1086;-71
2023/03/27 14:43:01;;;;;;;;;;;9.70;91.70;;;;;;5087766;28;1520;-70
2023/03/27 14:45:30;;;;;;;;;;;9.90;90.20;;;;;;5085860;28;1237;-71
2023/03/27 14:47:58;;;;;;;;;;;9.80;90.10;;;;;;5089083;28;1258;-70
2023/03/27 14:50:29;;;;;;;;;;;8.90;90.40;;;;;;5087086;28;1222;-70
2023/03/27 14:52:57;;;;;;;;;;;8.10;92.80;;;;;;5085989;28;1275;-70
2023/03/27 14:55:31;;;;;;;;;;;7.70;94.10;;;;;;5071126;28;1104;-71
2023/03/27 14:58:23;;;;;;;;;;;8.00;95.40;;;;;;5090099;28;1914;-71
2023/03/27 15:00:52;;;;;;;;;;;9.10;94.50;;;;;;5085727;28;1302;-71
2023/03/27 15:03:22;;;;;;;;;;;9.80;92.80;;;;;;5087592;28;1213;-71
2023/03/27 15:05:52;;;;;;;;;;;9.80;94.20;;;;;;5070016;28;1239;-71
2023/03/27 15:08:21;;;;;;;;;;;9.70;95.80;;;;;;5085401;28;1243;-70
2023/03/27 15:11:09;;;;;;;;;;;8.90;99.40;;;;;;5073336;28;1232;-70
2023/03/27 15:13:46;;;;;;;;;;;9.00;99.90;;;;;;5077351;28;1036;-71
2023/03/27 15:16:21;;;;;;;;;;;9.60;96.60;;;;;;5067857;28;1124;-71